Lula, MS (38644)

5:32 AM CDT on September 03, 2015 (GMT -0500)
Memphis International | | Change Station
CLOSE
Current Station
Airport
Location: Memphis,
Elevation: 331 ft
Nearby Weather Stations

Elev 331 ft 35.06 °N, 89.99 °W | Updated 38 minutes ago

Clear
Clear
74 °F
Feels Like 74 °F
N
0
Wind Variable Wind from North

Today
High -- | Low -- °F
--% Chance of Precip.
Yesterday
High -- | Low -- °F
Precip. -- in
6:36 AM 7:25 PM
Waning Gibbous, 71% visible
Pressure 29.99 in
Visibility 10.0 miles
Clouds Clear
Dew Point 70 °F
Humidity 87%
Rainfall 0.00 in
Snow Depth Not available.
UV 0 out of 12
Pollen 10.00 out of 12
Air Quality Not available.
Flu Activity Not available.
METAR KMEM 030954Z 00000KT 10SM CLR 23/21 A3001 RMK AO2 SLP156 T02330211 $
Pressure 29.99 in
Visibility 10.0 miles
Clouds Clear
Dew Point 70 °F
Humidity 87%
Rainfall 0.00 in
Snow Depth Not available.
UV 0 out of 12
Pollen 10.00 out of 12
Air Quality Not available.
Flu Activity Not available.
METAR KMEM 030954Z 00000KT 10SM CLR 23/21 A3001 RMK AO2 SLP156 T02330211 $
Nowcast | as of 5:24 am CDT on September 3, 2015

Patchy dense fog will be possible this morning. Visibilities at times could drop to a quarter of a mile or less. Travelers should slow their speed...use their low beam headlights...and allow extra time in reaching their destinations this morning.

×

10-Day Weather Forecast

×

Almanac

Astronomy

Sep. 03, 2015 Rise Set
Actual Time
Civil Twilight
Nautical Twilight
Astronomical Twilight
Moon
Length of Visible Light
Length of Day
Tomorrow will be .
, % of the Moon is Illuminated

Today's Extremes

State Highs State Lows

Community

WunderPhotos

Upload Photos

1,851,933 photos uploaded!

WunderBlogs® & News

Nearby

Air Quality

  Air Quality AQ Index Pollutant
Not available.

Snow Depth

Station Depth Elevation

Earthquake Activity

City Distance Mag. Time & Date
Minimum magnitude displayed is 2.5.

Coastal Water Temperatures

Place Temperature

Stations

Nearby Weather Stations

Station Location Temp. Windchill Dew Point Humidity Wind Precip. Elev Updated Type